Time;durP1;ratioP1;P1;durP2;ratioP2;P2;SDS_P1;SDS_P2;PMS_P1;PMS_P2;Temp;Humidity;BMP_temperature;BMP_pressure;BME280_temperature;BME280_humidity;BME280_pressure;Samples;Min_cycle;Max_cycle;Signal;HPM_P1;HPM_P2
2023/06/26 00:00:21;;;;;;;16.80;11.77;;;;;;;16.41;66.01;99117.88;4956363;28;20050;-67
2023/06/26 00:02:47;;;;;;;17.83;11.32;;;;;;;16.40;66.55;99116.19;4938378;28;20046;-65
2023/06/26 00:05:13;;;;;;;15.60;11.98;;;;;;;16.36;66.40;99122.91;4954826;28;20061;-64
2023/06/26 00:07:39;;;;;;;16.25;10.55;;;;;;;16.33;66.09;99114.13;4955611;28;20050;-64
2023/06/26 00:10:05;;;;;;;19.15;11.35;;;;;;;16.29;65.86;99115.44;4954548;28;20054;-64
2023/06/26 00:12:32;;;;;;;23.10;10.77;;;;;;;16.26;65.85;99126.50;4954425;28;20053;-64
2023/06/26 00:14:58;;;;;;;21.45;12.10;;;;;;;16.22;66.47;99125.16;4952687;28;20069;-64
2023/06/26 00:17:23;;;;;;;17.48;12.15;;;;;;;16.20;67.00;99124.47;4956198;28;20041;-64
2023/06/26 00:19:50;;;;;;;20.80;12.43;;;;;;;16.17;66.91;99118.56;4967567;28;20049;-65
2023/06/26 00:22:15;;;;;;;18.38;11.93;;;;;;;16.12;66.95;99107.44;4974364;28;20394;-66
2023/06/26 00:24:40;;;;;;;18.58;12.30;;;;;;;16.09;67.07;99113.13;4959911;28;20061;-67
2023/06/26 00:27:06;;;;;;;19.70;12.63;;;;;;;16.07;67.54;99115.13;4955606;28;20038;-67
2023/06/26 00:29:31;;;;;;;18.13;11.93;;;;;;;16.06;67.94;99108.91;4956140;28;20547;-66
2023/06/26 00:31:56;;;;;;;19.33;11.40;;;;;;;16.03;68.09;99109.22;4955999;28;20046;-65
2023/06/26 00:34:22;;;;;;;18.38;12.18;;;;;;;16.02;67.61;99107.56;4956045;28;20042;-65
2023/06/26 00:36:47;;;;;;;19.75;12.52;;;;;;;16.01;68.51;99103.16;4938096;28;20042;-65
2023/06/26 00:39:12;;;;;;;19.13;12.40;;;;;;;15.98;68.38;99098.94;4955533;28;20049;-64
2023/06/26 00:41:38;;;;;;;17.60;11.00;;;;;;;15.97;68.50;99094.56;4955487;28;20428;-65
2023/06/26 00:44:04;;;;;;;18.42;11.73;;;;;;;15.96;68.06;99098.25;4958069;28;20416;-64
2023/06/26 00:46:31;;;;;;;19.48;11.75;;;;;;;15.93;69.01;99097.72;4955317;28;20054;-64
2023/06/26 00:48:58;;;;;;;17.60;12.07;;;;;;;15.94;68.97;99104.78;4950865;28;20055;-65
2023/06/26 00:51:24;;;;;;;18.05;11.77;;;;;;;15.92;69.30;99098.72;4936489;28;20049;-63
2023/06/26 00:53:50;;;;;;;16.15;11.05;;;;;;;15.91;69.28;99100.56;4943130;28;20429;-65
2023/06/26 00:56:19;;;;;;;18.35;11.57;;;;;;;15.89;69.79;99097.19;4954554;28;20045;-66
2023/06/26 00:58:45;;;;;;;15.80;11.45;;;;;;;15.91;70.10;99105.13;4955683;28;20042;-65
2023/06/26 01:01:15;;;;;;;19.40;11.70;;;;;;;15.89;69.03;99105.28;4953936;28;20053;-65
2023/06/26 01:03:42;;;;;;;18.70;11.52;;;;;;;15.89;69.75;99115.19;4955733;28;20061;-64
2023/06/26 01:06:11;;;;;;;17.05;12.13;;;;;;;15.88;69.06;99110.78;4954181;28;20042;-65
2023/06/26 01:08:36;;;;;;;16.27;11.93;;;;;;;15.89;69.19;99107.13;4954501;28;20050;-66
2023/06/26 01:11:01;;;;;;;20.63;12.68;;;;;;;15.91;69.50;99111.31;4954152;28;20039;-65
2023/06/26 01:13:29;;;;;;;17.48;11.48;;;;;;;15.96;68.75;99103.63;4955255;28;20409;-66
2023/06/26 01:15:55;;;;;;;15.20;11.00;;;;;;;16.01;68.65;99102.31;4955570;28;20039;-65
2023/06/26 01:18:21;;;;;;;15.57;11.25;;;;;;;16.05;68.77;99107.22;4954094;28;20406;-66
2023/06/26 01:20:47;;;;;;;18.10;12.38;;;;;;;16.05;69.19;99109.91;4955084;28;20532;-65
2023/06/26 01:23:22;;;;;;;21.55;11.05;;;;;;;16.06;68.79;99106.22;4938098;28;20057;-64
2023/06/26 01:26:01;;;;;;;21.10;11.48;;;;;;;16.05;68.65;99103.69;4953716;28;20053;-66
2023/06/26 01:28:27;;;;;;;16.90;10.18;;;;;;;15.99;68.83;99099.78;4955418;28;20050;-66
2023/06/26 01:30:54;;;;;;;18.02;10.88;;;;;;;15.94;69.63;99099.41;4962851;28;20048;-65
2023/06/26 01:33:20;;;;;;;17.60;10.82;;;;;;;15.92;68.92;99099.56;4950018;28;20046;-64
2023/06/26 01:35:45;;;;;;;17.33;11.40;;;;;;;15.89;69.55;99099.88;4944122;28;20034;-63
2023/06/26 01:38:19;;;;;;;15.73;11.65;;;;;;;15.92;69.25;99096.03;4947743;28;20049;-63
2023/06/26 01:40:45;;;;;;;20.15;11.13;;;;;;;15.87;69.33;99095.66;4971741;28;20049;-63
2023/06/26 01:43:34;;;;;;;21.30;12.50;;;;;;;15.87;69.83;99098.34;4950257;28;20046;-63
2023/06/26 01:46:06;;;;;;;15.65;11.02;;;;;;;15.84;70.37;99101.34;4946698;28;20045;-64
2023/06/26 01:48:40;;;;;;;24.13;12.23;;;;;;;15.80;70.05;99094.63;4947627;28;20061;-63
2023/06/26 01:51:07;;;;;;;;;;;;;;;15.94;70.00;99104.78;4964402;28;20119;-64
2023/06/26 01:53:40;;;;;;;22.15;12.35;;;;;;;15.83;69.95;99102.34;4972459;28;19918;-65
2023/06/26 01:56:12;;;;;;;16.75;11.80;;;;;;;15.78;69.16;99104.66;4947773;28;20046;-64
2023/06/26 01:58:43;;;;;;;18.40;12.77;;;;;;;15.79;69.48;99107.22;4959455;28;20046;-65
2023/06/26 02:01:08;;;;;;;20.05;12.88;;;;;;;15.82;70.22;99100.66;4951427;28;20046;-65
2023/06/26 02:03:33;;;;;;;18.30;11.60;;;;;;;15.82;69.98;99104.19;4953715;28;20058;-64
2023/06/26 02:05:59;;;;;;;18.52;12.50;;;;;;;15.85;70.66;99109.25;4953406;28;20525;-65
2023/06/26 02:08:26;;;;;;;19.40;12.20;;;;;;;15.88;69.97;99105.41;4956929;28;20050;-64
2023/06/26 02:10:55;;;;;;;16.10;11.18;;;;;;;15.93;69.97;99108.47;4957077;28;20501;-64
2023/06/26 02:13:20;;;;;;;16.48;12.00;;;;;;;15.99;70.44;99105.16;4958228;28;20053;-64
2023/06/26 02:15:45;;;;;;;20.55;11.43;;;;;;;16.05;70.60;99107.22;4973688;28;20034;-66
2023/06/26 02:18:11;;;;;;;20.58;12.30;;;;;;;16.11;70.64;99111.97;4956310;28;20085;-65
2023/06/26 02:20:36;;;;;;;18.98;11.93;;;;;;;16.16;70.27;99109.66;4953435;28;20401;-64
2023/06/26 02:23:02;;;;;;;18.10;12.13;;;;;;;16.23;70.36;99104.50;4956919;28;20868;-65
2023/06/26 02:25:27;;;;;;;28.92;13.45;;;;;;;16.27;69.66;99100.47;4957989;28;20054;-64
2023/06/26 02:27:52;;;;;;;16.95;10.65;;;;;;;16.33;69.85;99100.69;4956979;28;20042;-64
2023/06/26 02:30:18;;;;;;;19.38;11.13;;;;;;;16.41;69.56;99096.34;4957971;28;20050;-65
2023/06/26 02:32:44;;;;;;;22.20;11.98;;;;;;;16.45;69.68;99097.72;4939928;28;20057;-65
2023/06/26 02:35:10;;;;;;;17.20;11.68;;;;;;;16.50;69.60;99100.75;4940586;28;20054;-65
2023/06/26 02:37:40;;;;;;;17.63;10.93;;;;;;;16.55;69.28;99098.44;4973237;28;20535;-65
2023/06/26 02:40:08;;;;;;;18.30;11.48;;;;;;;16.61;69.20;99103.16;4956881;28;20068;-62
2023/06/26 02:42:35;;;;;;;14.73;10.60;;;;;;;16.65;69.40;99108.13;4956528;28;20057;-64
2023/06/26 02:45:00;;;;;;;14.85;10.85;;;;;;;16.70;68.94;99110.34;4972792;28;20042;-63
2023/06/26 02:47:29;;;;;;;19.10;12.32;;;;;;;16.74;69.54;99106.28;4956425;28;20042;-64
2023/06/26 02:49:55;;;;;;;17.95;12.43;;;;;;;16.81;69.45;99109.19;4957838;28;20042;-64
2023/06/26 02:52:20;;;;;;;22.27;12.65;;;;;;;16.89;69.36;99107.38;4956047;28;20049;-67
2023/06/26 02:54:46;;;;;;;17.60;11.43;;;;;;;17.02;69.75;99110.47;4956143;28;20524;-65
2023/06/26 02:57:14;;;;;;;18.02;11.90;;;;;;;17.20;69.39;99109.47;4939357;28;20046;-66
2023/06/26 02:59:40;;;;;;;20.55;12.02;;;;;;;17.38;68.49;99102.94;4956164;28;20505;-65
2023/06/26 03:02:06;;;;;;;25.88;13.05;;;;;;;17.56;68.08;99110.06;4956158;28;20050;-65
2023/06/26 03:04:39;;;;;;;21.83;12.93;;;;;;;17.64;67.25;99102.84;4955822;28;20440;-69
2023/06/26 03:07:08;;;;;;;19.60;12.27;;;;;;;17.67;66.55;99104.38;4950646;28;20042;-68
2023/06/26 03:09:35;;;;;;;17.35;12.10;;;;;;;17.70;66.17;99101.34;4948127;28;20784;-67
2023/06/26 03:12:01;;;;;;;14.95;10.90;;;;;;;17.73;66.62;99107.22;4955426;28;20421;-68
2023/06/26 03:14:26;;;;;;;18.20;12.27;;;;;;;17.78;66.12;99104.88;4955755;28;20046;-72
2023/06/26 03:16:53;;;;;;;16.33;11.73;;;;;;;17.81;66.47;99102.88;4955834;28;20497;-71
2023/06/26 03:19:18;;;;;;;17.85;11.60;;;;;;;17.86;66.60;99103.19;4961871;28;20038;-68
2023/06/26 03:22:04;;;;;;;22.02;12.25;;;;;;;17.96;66.39;99104.69;4963314;28;20045;-68
2023/06/26 03:24:29;;;;;;;22.92;11.95;;;;;;;18.14;65.92;99091.88;4952794;28;20524;-69
2023/06/26 03:26:55;;;;;;;21.85;14.85;;;;;;;18.40;64.39;99088.94;4956398;28;20386;-70
2023/06/26 03:29:20;;;;;;;25.35;14.73;;;;;;;18.68;63.76;99089.41;4956184;28;20049;-70
2023/06/26 03:31:45;;;;;;;23.85;14.68;;;;;;;18.95;62.89;99093.50;4955354;28;20049;-71
2023/06/26 03:34:11;;;;;;;25.08;14.85;;;;;;;19.20;61.21;99092.34;4937988;28;20202;-72
2023/06/26 03:36:36;;;;;;;24.13;14.52;;;;;;;19.43;60.35;99080.69;4971937;28;20180;-71
2023/06/26 03:39:03;;;;;;;19.67;14.40;;;;;;;19.65;58.63;99081.75;4955612;28;20096;-71
2023/06/26 03:41:29;;;;;;;22.80;15.70;;;;;;;19.87;57.92;99079.03;4955532;28;20054;-71
2023/06/26 03:43:56;;;;;;;23.02;14.82;;;;;;;20.09;57.18;99079.19;4956145;28;20497;-71
2023/06/26 03:46:25;;;;;;;25.50;15.07;;;;;;;20.28;56.37;99070.53;4956111;28;20051;-70
2023/06/26 03:48:50;;;;;;;23.77;14.80;;;;;;;20.47;55.24;99074.56;4947612;28;20054;-71
2023/06/26 03:51:16;;;;;;;23.55;13.65;;;;;;;20.65;55.06;99078.56;4967144;28;20050;-70
2023/06/26 03:53:42;;;;;;;20.90;14.32;;;;;;;20.85;54.98;99061.75;4954909;28;20042;-71
2023/06/26 03:56:07;;;;;;;22.40;14.45;;;;;;;21.06;54.04;99069.09;4956450;28;20050;-72
2023/06/26 03:58:32;;;;;;;24.33;13.38;;;;;;;21.29;53.70;99076.09;4954659;28;20041;-68
2023/06/26 04:00:58;;;;;;;16.75;12.98;;;;;;;21.52;53.19;99070.47;4956204;28;20053;-71
2023/06/26 04:03:24;;;;;;;24.88;13.07;;;;;;;21.73;52.63;99065.03;4939182;28;20517;-71
2023/06/26 04:05:49;;;;;;;20.05;13.10;;;;;;;21.90;51.26;99067.47;4954571;28;20050;-70
2023/06/26 04:08:14;;;;;;;16.08;11.60;;;;;;;22.05;50.88;99071.81;4938283;28;20057;-73
2023/06/26 04:10:40;;;;;;;16.67;11.80;;;;;;;22.03;48.96;99068.44;4939187;28;20061;-71
2023/06/26 04:13:05;;;;;;;17.08;11.77;;;;;;;22.02;49.65;99068.66;4954948;28;20061;-71
2023/06/26 04:15:30;;;;;;;20.17;11.95;;;;;;;22.02;50.04;99072.19;4956375;28;20045;-70
2023/06/26 04:17:55;;;;;;;14.15;10.15;;;;;;;22.06;49.62;99078.94;4955141;28;20035;-71
2023/06/26 04:20:20;;;;;;;16.17;10.93;;;;;;;22.17;48.93;99079.41;4956351;28;20046;-70
2023/06/26 04:22:46;;;;;;;14.20;10.00;;;;;;;22.32;48.55;99067.44;4956249;28;20038;-70
2023/06/26 04:25:14;;;;;;;15.13;11.20;;;;;;;22.54;48.39;99076.34;4956199;28;20058;-71
2023/06/26 04:27:39;;;;;;;12.77;9.77;;;;;;;22.65;47.28;99073.06;4956190;28;20053;-71
2023/06/26 04:30:05;;;;;;;11.05;8.60;;;;;;;22.81;46.72;99072.72;4956276;28;20829;-71
2023/06/26 04:32:31;;;;;;;19.38;10.43;;;;;;;23.08;46.86;99079.13;4956274;28;20046;-71
2023/06/26 04:34:56;;;;;;;14.10;9.05;;;;;;;23.38;46.41;99074.19;4954876;28;20643;-70
2023/06/26 04:37:22;;;;;;;13.52;9.27;;;;;;;23.61;45.81;99073.00;4955533;28;20473;-71
2023/06/26 04:39:47;;;;;;;18.38;9.68;;;;;;;23.87;45.23;99067.59;4971096;28;20034;-71
2023/06/26 04:42:13;;;;;;;14.82;9.43;;;;;;;24.20;44.49;99065.72;4954644;28;20425;-70
2023/06/26 04:44:38;;;;;;;13.40;9.07;;;;;;;24.46;42.67;99066.75;4953986;28;20053;-72
2023/06/26 04:47:04;;;;;;;15.55;11.95;;;;;;;24.45;42.20;99071.38;4955686;28;20046;-70
2023/06/26 04:49:29;;;;;;;11.38;8.80;;;;;;;24.63;42.11;99062.50;4938309;28;20069;-70
2023/06/26 04:51:55;;;;;;;12.02;8.82;;;;;;;24.86;40.59;99070.19;4954147;28;20426;-71
2023/06/26 04:54:20;;;;;;;11.27;8.65;;;;;;;25.26;40.15;99073.63;4922452;28;20061;-71
2023/06/26 04:56:47;;;;;;;10.65;7.38;;;;;;;25.74;40.12;99062.22;4955774;28;20042;-71
2023/06/26 04:59:13;;;;;;;13.25;8.40;;;;;;;26.14;38.61;99063.59;4954854;28;20061;-71
2023/06/26 05:01:39;;;;;;;12.95;8.00;;;;;;;26.51;38.29;99072.72;4970896;28;20122;-72
2023/06/26 05:04:05;;;;;;;11.27;8.30;;;;;;;26.53;36.55;99058.81;4953645;28;20050;-71
2023/06/26 05:06:30;;;;;;;11.00;8.95;;;;;;;26.56;37.17;99053.72;4955716;28;20409;-71
2023/06/26 05:08:56;;;;;;;11.60;8.57;;;;;;;26.78;36.87;99062.31;4955856;28;20375;-70
2023/06/26 05:11:21;;;;;;;16.13;9.43;;;;;;;26.58;36.06;99061.72;4954930;28;20054;-71
2023/06/26 05:13:46;;;;;;;11.40;8.40;;;;;;;26.66;36.92;99059.50;4959359;28;20046;-70
2023/06/26 05:16:12;;;;;;;16.45;8.93;;;;;;;26.79;36.42;99057.69;4957918;28;20042;-70
2023/06/26 05:18:37;;;;;;;14.90;9.30;;;;;;;26.88;36.78;99051.69;4959632;28;20057;-71
2023/06/26 05:21:03;;;;;;;15.52;8.90;;;;;;;27.11;36.35;99071.00;4959304;28;20515;-72
2023/06/26 05:23:32;;;;;;;27.42;10.73;;;;;;;27.38;35.27;99060.53;4958205;28;20057;-73
2023/06/26 05:25:58;;;;;;;15.20;10.77;;;;;;;27.48;34.85;99063.53;4974608;28;20065;-71
2023/06/26 05:28:24;;;;;;;11.13;8.52;;;;;;;27.50;34.40;99066.06;4959347;28;20046;-72
2023/06/26 05:30:51;;;;;;;13.20;9.25;;;;;;;27.45;33.95;99069.47;4959323;28;20054;-72
2023/06/26 05:33:18;;;;;;;14.38;9.25;;;;;;;27.33;34.53;99060.38;4957822;28;20054;-73
2023/06/26 05:35:45;;;;;;;13.95;9.23;;;;;;;27.56;34.50;99065.13;4959209;28;20058;-72
2023/06/26 05:38:13;;;;;;;12.80;9.23;;;;;;;27.41;32.97;99070.19;4958970;28;20042;-71
2023/06/26 05:40:40;;;;;;;14.95;9.60;;;;;;;27.23;33.28;99065.56;4958126;28;20054;-71
2023/06/26 05:43:05;;;;;;;12.60;8.85;;;;;;;27.45;33.52;99061.25;4957876;28;20044;-72
2023/06/26 05:45:30;;;;;;;11.60;8.45;;;;;;;27.71;33.54;99054.59;4957229;28;20050;-73
2023/06/26 05:47:55;;;;;;;13.45;9.23;;;;;;;27.85;33.73;99054.38;4959012;28;20413;-73
2023/06/26 05:50:21;;;;;;;11.68;8.90;;;;;;;28.10;33.55;99052.28;4959062;28;20498;-72
2023/06/26 05:52:46;;;;;;;13.65;8.88;;;;;;;28.22;32.57;99055.06;4958945;28;20042;-72
2023/06/26 05:55:12;;;;;;;10.30;7.78;;;;;;;28.25;32.26;99051.84;4959155;28;20050;-73
2023/06/26 05:57:40;;;;;;;10.15;7.75;;;;;;;28.46;31.72;99049.31;4958957;28;20497;-72
2023/06/26 06:00:10;;;;;;;10.88;7.78;;;;;;;28.50;31.30;99049.69;4958888;28;20126;-72
2023/06/26 06:02:40;;;;;;;;;;;;;;;28.85;32.14;99052.41;4959413;28;20405;-73
2023/06/26 06:05:05;;;;;;;12.45;8.60;;;;;;;28.76;31.71;99057.41;4950891;28;19917;-72
2023/06/26 06:07:34;;;;;;;11.40;9.20;;;;;;;28.56;31.66;99053.38;4958779;28;20595;-72
2023/06/26 06:10:00;;;;;;;11.20;8.95;;;;;;;28.46;31.30;99056.72;4958718;28;20057;-72
2023/06/26 06:12:25;;;;;;;13.65;8.00;;;;;;;28.85;30.91;99047.75;4958832;28;20046;-71
2023/06/26 06:14:51;;;;;;;11.13;7.97;;;;;;;28.89;30.42;99048.13;4958712;28;20061;-72
2023/06/26 06:17:17;;;;;;;10.27;7.78;;;;;;;29.23;30.28;99052.63;4958619;28;20054;-71
2023/06/26 06:19:42;;;;;;;11.13;7.55;;;;;;;29.80;30.27;99060.84;4957537;28;20417;-72
2023/06/26 06:22:07;;;;;;;10.27;8.50;;;;;;;30.06;29.33;99047.59;4957800;28;20042;-71
2023/06/26 06:24:32;;;;;;;10.30;8.18;;;;;;;30.69;28.77;99058.22;4958550;28;20743;-72
2023/06/26 06:26:57;;;;;;;10.55;8.27;;;;;;;31.01;28.39;99050.09;4957317;28;20050;-72
2023/06/26 06:29:22;;;;;;;13.57;8.48;;;;;;;31.69;28.01;99045.94;4940256;28;20421;-71
2023/06/26 06:31:48;;;;;;;12.43;9.65;;;;;;;31.84;27.60;99043.31;4958140;28;20049;-73
2023/06/26 06:34:13;;;;;;;10.25;7.78;;;;;;;32.34;27.60;99036.56;4957580;28;20046;-71
2023/06/26 06:36:39;;;;;;;12.45;8.75;;;;;;;32.91;26.67;99036.66;4958053;28;20050;-73
2023/06/26 06:39:04;;;;;;;11.30;9.13;;;;;;;33.32;26.32;99043.16;4958028;28;20182;-72
2023/06/26 06:41:29;;;;;;;11.98;8.30;;;;;;;33.83;25.79;99043.28;4957957;28;20046;-72
2023/06/26 06:43:54;;;;;;;14.90;8.90;;;;;;;33.92;25.33;99030.56;4956567;28;20073;-71
2023/06/26 06:46:20;;;;;;;11.60;8.55;;;;;;;34.06;24.23;99039.16;4956025;28;20057;-71
2023/06/26 06:48:46;;;;;;;10.02;8.10;;;;;;;33.12;24.74;99026.50;4958353;28;20046;-72
2023/06/26 06:51:11;;;;;;;9.40;6.68;;;;;;;33.34;24.89;99035.44;4958788;28;20512;-73
2023/06/26 06:53:36;;;;;;;9.93;8.90;;;;;;;33.67;24.35;99028.59;4960425;28;20052;-73
2023/06/26 06:56:02;;;;;;;15.50;8.32;;;;;;;33.86;24.52;99034.44;4959049;28;20049;-73
2023/06/26 06:58:27;;;;;;;12.18;7.90;;;;;;;34.64;24.13;99025.81;4956952;28;20548;-73
2023/06/26 07:00:52;;;;;;;9.55;7.50;;;;;;;35.90;23.40;99022.38;4957611;28;20046;-74
2023/06/26 07:03:18;;;;;;;10.77;7.88;;;;;;;36.54;21.45;99028.75;4939695;28;20050;-70
2023/06/26 07:05:44;;;;;;;9.48;8.05;;;;;;;36.51;21.87;99032.94;4957358;28;20050;-70
2023/06/26 07:08:09;;;;;;;11.23;7.55;;;;;;;36.45;21.46;99027.75;4956815;28;20386;-70
2023/06/26 07:10:35;;;;;;;9.23;7.75;;;;;;;36.96;21.51;99025.22;4957180;28;20497;-71
2023/06/26 07:13:00;;;;;;;9.32;7.60;;;;;;;37.41;21.06;99027.44;4956066;28;20042;-70
2023/06/26 07:15:26;;;;;;;9.18;8.20;;;;;;;37.63;19.69;99021.28;4939346;28;20543;-70
2023/06/26 07:17:51;;;;;;;10.13;7.70;;;;;;;36.80;20.54;99027.38;4957160;28;20049;-70
2023/06/26 07:20:16;;;;;;;9.35;7.72;;;;;;;37.23;20.32;99027.44;4972103;28;20524;-69
2023/06/26 07:22:44;;;;;;;8.73;7.68;;;;;;;37.55;19.92;99019.16;4947705;28;20382;-70
2023/06/26 07:25:10;;;;;;;7.75;6.85;;;;;;;38.10;19.55;99019.44;4955741;28;20065;-70
2023/06/26 07:27:36;;;;;;;8.80;7.47;;;;;;;38.65;18.97;99019.56;4955554;28;20058;-69
2023/06/26 07:30:01;;;;;;;11.68;7.80;;;;;;;38.95;18.73;99024.50;4939591;28;20054;-71
2023/06/26 07:32:31;;;;;;;11.15;8.70;;;;;;;38.84;18.56;99017.47;4971637;28;20038;-72
2023/06/26 07:34:56;;;;;;;9.60;8.70;;;;;;;38.54;18.71;99021.72;4956121;28;20073;-69
2023/06/26 07:37:22;;;;;;;9.68;7.95;;;;;;;38.72;18.69;99012.41;4956799;28;20042;-69
2023/06/26 07:39:49;;;;;;;8.32;7.43;;;;;;;38.73;17.94;99011.28;4956875;28;20045;-70
2023/06/26 07:42:14;;;;;;;9.77;7.90;;;;;;;38.83;18.36;99010.25;4923409;28;20050;-70
2023/06/26 07:44:42;;;;;;;8.70;7.75;;;;;;;39.70;17.28;99014.78;4955879;28;20145;-69
2023/06/26 07:47:07;;;;;;;9.13;7.40;;;;;;;40.94;16.67;99013.75;4956855;28;20845;-70
2023/06/26 07:49:33;;;;;;;9.30;8.27;;;;;;;40.86;16.80;99008.13;4956587;28;20054;-71
2023/06/26 07:51:58;;;;;;;10.30;8.52;;;;;;;41.38;16.59;98999.88;4956622;28;20512;-71
2023/06/26 07:54:23;;;;;;;9.80;8.90;;;;;;;42.16;16.19;99000.69;4939269;28;20049;-70
2023/06/26 07:57:06;;;;;;;9.23;8.32;;;;;;;43.47;15.77;99011.78;4955409;28;20049;-70
2023/06/26 07:59:33;;;;;;;11.20;10.10;;;;;;;43.47;15.83;99009.81;4956246;28;20100;-74
2023/06/26 08:01:59;;;;;;;11.18;9.15;;;;;;;43.90;16.07;99002.22;4956343;28;20053;-72
2023/06/26 08:04:26;;;;;;;12.95;9.90;;;;;;;43.92;15.83;99008.28;4954912;28;20054;-74
2023/06/26 08:06:54;;;;;;;11.60;10.15;;;;;;;41.33;16.70;99042.81;4956111;28;20100;-75
2023/06/26 08:09:21;;;;;;;11.98;9.55;;;;;;;38.71;18.40;99009.97;4956358;28;20615;-72
2023/06/26 08:11:47;;;;;;;10.32;9.23;;;;;;;37.48;19.28;99001.19;4938207;28;20452;-74
2023/06/26 08:14:13;;;;;;;14.10;9.15;;;;;;;37.28;19.69;98992.03;4956198;28;20061;-71
2023/06/26 08:16:39;;;;;;;10.80;8.70;;;;;;;38.04;19.57;98984.41;4954841;28;20050;-71
2023/06/26 08:19:04;;;;;;;9.82;8.82;;;;;;;37.61;19.88;98990.13;4956183;28;20544;-72
2023/06/26 08:21:29;;;;;;;10.55;8.65;;;;;;;36.14;20.59;99041.06;4956180;28;20053;-71
2023/06/26 08:23:54;;;;;;;12.82;9.13;;;;;;;35.73;21.06;98996.16;4956117;28;20069;-71
2023/06/26 08:26:20;;;;;;;10.15;7.35;;;;;;;35.26;21.83;98994.81;4956260;28;20046;-70
2023/06/26 08:28:45;;;;;;;11.90;9.07;;;;;;;34.58;22.05;99028.56;4956413;28;20047;-70
2023/06/26 08:31:10;;;;;;;10.05;8.73;;;;;;;33.83;22.89;98994.34;4955844;28;20042;-70
2023/06/26 08:33:36;;;;;;;11.60;8.10;;;;;;;33.21;23.87;98990.88;4938338;28;20402;-70
2023/06/26 08:36:01;;;;;;;9.88;8.07;;;;;;;32.34;24.79;98995.19;4955964;28;20058;-70
2023/06/26 08:38:27;;;;;;;10.57;8.32;;;;;;;31.39;25.25;99003.19;4955978;28;20039;-71
2023/06/26 08:40:52;;;;;;;10.65;7.78;;;;;;;30.52;25.83;98988.59;4956127;28;20042;-71
2023/06/26 08:43:17;;;;;;;8.57;7.07;;;;;;;29.67;27.25;98987.03;4954119;28;20065;-70
2023/06/26 08:45:43;;;;;;;9.75;8.07;;;;;;;29.01;27.53;98991.25;4955937;28;20045;-71
2023/06/26 08:48:09;;;;;;;9.18;7.18;;;;;;;28.40;28.69;98998.19;4955800;28;20045;-69
2023/06/26 08:50:35;;;;;;;9.77;8.00;;;;;;;27.91;28.94;98995.91;4955556;28;20045;-70
2023/06/26 08:53:31;;;;;;;10.82;7.80;;;;;;;27.57;29.94;99000.25;4955951;28;20375;-70
2023/06/26 08:55:59;;;;;;;10.38;8.55;;;;;;;27.03;30.59;99005.66;4954128;28;20501;-70
2023/06/26 08:58:25;;;;;;;11.27;7.80;;;;;;;26.57;31.35;99000.72;4955930;28;20043;-71
2023/06/26 09:00:51;;;;;;;13.98;8.00;;;;;;;26.15;31.47;99007.06;4954736;28;20041;-71
2023/06/26 09:03:17;;;;;;;11.35;8.00;;;;;;;25.79;32.75;98999.59;4955709;28;20034;-71
2023/06/26 09:05:42;;;;;;;12.38;8.30;;;;;;;25.52;33.31;98993.47;4955520;28;20516;-71
2023/06/26 09:08:07;;;;;;;14.52;8.30;;;;;;;25.29;33.86;98996.78;4970718;28;20043;-71
2023/06/26 09:10:33;;;;;;;12.05;8.50;;;;;;;25.16;34.68;98999.63;4954089;28;20061;-71
2023/06/26 09:13:00;;;;;;;15.27;8.75;;;;;;;24.99;34.71;99003.91;4953605;28;20429;-71
2023/06/26 09:15:28;;;;;;;11.40;8.35;;;;;;;24.86;34.83;98996.59;4970709;28;20053;-70
2023/06/26 09:17:56;;;;;;;9.63;8.07;;;;;;;24.66;35.51;98998.56;4938262;28;20049;-71
2023/06/26 09:20:21;;;;;;;12.38;8.57;;;;;;;24.58;35.58;98994.19;4970643;28;20049;-71
2023/06/26 09:22:48;;;;;;;14.25;8.15;;;;;;;24.53;35.61;99000.28;4955534;28;20042;-72
2023/06/26 09:25:13;;;;;;;16.50;7.88;;;;;;;24.50;35.27;99000.69;4955457;28;20050;-72
2023/06/26 09:27:38;;;;;;;10.07;7.93;;;;;;;24.29;35.87;99005.59;4955538;28;20046;-72
2023/06/26 09:30:06;;;;;;;9.43;8.15;;;;;;;24.22;35.95;99000.16;4954077;28;20050;-72
2023/06/26 09:32:35;;;;;;;12.63;8.60;;;;;;;24.19;36.26;98997.81;4955531;28;20042;-71
2023/06/26 09:35:02;;;;;;;8.98;7.45;;;;;;;24.21;35.68;98993.84;4955469;28;20042;-72
2023/06/26 09:37:29;;;;;;;12.43;8.35;;;;;;;24.22;35.94;98992.84;4955501;28;20042;-71
2023/06/26 09:39:54;;;;;;;14.70;8.65;;;;;;;24.33;35.88;99001.41;4955593;28;20046;-71
2023/06/26 09:42:20;;;;;;;16.35;8.18;;;;;;;24.30;35.87;98996.38;4938086;28;20057;-71
2023/06/26 09:44:46;;;;;;;10.93;8.43;;;;;;;24.24;35.76;98993.47;4954118;28;20051;-70
2023/06/26 09:47:12;;;;;;;10.15;7.47;;;;;;;24.17;36.29;98995.31;4954519;28;20057;-72
2023/06/26 09:49:44;;;;;;;12.73;8.55;;;;;;;24.22;36.06;98995.56;4970595;28;20126;-72
2023/06/26 09:52:13;;;;;;;12.95;7.70;;;;;;;24.38;35.67;98999.69;4955310;28;20042;-69
2023/06/26 09:54:38;;;;;;;11.20;7.80;;;;;;;24.31;36.23;99003.50;4953469;28;20061;-71
2023/06/26 09:57:11;;;;;;;11.57;8.52;;;;;;;24.02;36.54;98999.34;4955496;28;20500;-73
2023/06/26 09:59:36;;;;;;;10.65;7.18;;;;;;;23.84;35.62;98995.34;4941160;28;20050;-71
2023/06/26 10:02:02;;;;;;;10.52;7.07;;;;;;;23.76;34.36;99001.03;4962385;28;20042;-72
2023/06/26 10:04:27;;;;;;;7.47;6.03;;;;;;;23.58;34.68;98998.09;4970333;28;20065;-72
2023/06/26 10:06:55;;;;;;;8.20;6.35;;;;;;;23.48;35.21;99009.34;4973821;28;20042;-72
2023/06/26 10:09:22;;;;;;;8.32;5.82;;;;;;;23.39;35.33;99017.91;4957039;28;20428;-72
2023/06/26 10:12:01;;;;;;;9.52;6.72;;;;;;;23.57;33.99;99010.03;4973542;28;20050;-71
2023/06/26 10:14:28;;;;;;;9.15;6.45;;;;;;;23.18;35.06;99005.31;4961127;28;20050;-70
2023/06/26 10:17:00;;;;;;;8.38;5.75;;;;;;;23.13;34.60;99000.53;4958511;28;20073;-69
2023/06/26 10:19:27;;;;;;;9.75;6.38;;;;;;;22.77;36.21;98992.66;4956362;28;20054;-70
2023/06/26 10:21:53;;;;;;;10.80;7.18;;;;;;;22.36;37.38;98991.81;4924415;28;20620;-70
2023/06/26 10:24:20;;;;;;;9.88;6.68;;;;;;;22.37;37.28;98986.16;4958274;28;20429;-70
2023/06/26 10:26:50;;;;;;;17.40;10.25;;;;;;;22.43;37.48;98982.66;4958146;28;20497;-71
2023/06/26 10:29:19;;;;;;;9.48;6.07;;;;;;;22.66;36.98;98987.78;4958026;28;20046;-71
2023/06/26 10:31:50;;;;;;;7.43;5.78;;;;;;;22.91;36.62;98979.13;4957924;28;20042;-69
2023/06/26 10:34:15;;;;;;;7.20;5.85;;;;;;;23.10;36.24;98983.78;4956478;28;20061;-69
2023/06/26 10:36:41;;;;;;;8.98;6.18;;;;;;;23.29;36.37;98966.63;4957791;28;20516;-71
2023/06/26 10:39:06;;;;;;;8.88;6.40;;;;;;;23.46;35.64;98967.94;4957551;28;20062;-71
2023/06/26 10:41:42;;;;;;;8.35;6.05;;;;;;;23.73;35.27;98957.88;4956196;28;20054;-69
2023/06/26 10:44:09;;;;;;;9.77;6.28;;;;;;;24.04;35.85;98965.38;4958021;28;20050;-70
2023/06/26 10:46:55;;;;;;;8.07;6.50;;;;;;;24.42;34.28;98956.50;4957270;28;20413;-70
2023/06/26 10:49:25;;;;;;;11.85;7.25;;;;;;;24.54;33.89;98952.91;4957772;28;20050;-70
2023/06/26 10:51:51;;;;;;;9.38;7.18;;;;;;;24.61;34.28;98959.16;4957651;28;20042;-69
2023/06/26 10:54:19;;;;;;;9.85;7.32;;;;;;;24.79;34.55;98960.34;4957722;28;20049;-71
2023/06/26 10:56:56;;;;;;;11.65;7.53;;;;;;;25.01;34.49;98955.44;4969426;28;20390;-71
2023/06/26 10:59:28;;;;;;;12.05;8.32;;;;;;;25.08;34.79;98948.88;4939889;28;20413;-70
2023/06/26 11:02:01;;;;;;;10.45;7.50;;;;;;;25.26;34.64;98953.59;4955675;28;20053;-69
2023/06/26 11:04:47;;;;;;;9.25;6.95;;;;;;;25.26;34.62;98945.41;4964963;28;20052;-71
2023/06/26 11:07:20;;;;;;;12.43;8.73;;;;;;;25.13;34.68;98948.22;4963535;28;20389;-70
2023/06/26 11:10:00;;;;;;;11.38;8.05;;;;;;;25.16;34.72;98947.78;4956664;28;20046;-69
2023/06/26 11:12:37;;;;;;;10.85;7.63;;;;;;;25.27;34.73;98938.91;4957790;28;20057;-70
2023/06/26 11:15:07;;;;;;;11.82;7.35;;;;;;;25.34;35.02;98942.41;4969443;28;20049;-70
2023/06/26 11:17:32;;;;;;;13.15;8.02;;;;;;;25.51;34.21;98939.94;4955540;28;20046;-69
2023/06/26 11:19:58;;;;;;;8.32;6.82;;;;;;;25.49;34.39;98942.09;4955415;28;20046;-69
2023/06/26 11:22:25;;;;;;;10.00;7.65;;;;;;;25.53;33.75;98944.13;4972528;28;20623;-68